Time;durP1;ratioP1;P1;durP2;ratioP2;P2;SDS_P1;SDS_P2;PMS_P1;PMS_P2;Temp;Humidity;BMP_temperature;BMP_pressure;BME280_temperature;BME280_humidity;BME280_pressure;Samples;Min_cycle;Max_cycle;Signal;HPM_P1;HPM_P2
2022/07/23 00:02:19;;;;;;;39.10;26.50;;;17.20;99.90;;;;;;5054730;28;20186;-67
2022/07/23 00:04:45;;;;;;;47.43;27.13;;;17.20;99.90;;;;;;5054774;28;20241;-68
2022/07/23 00:07:10;;;;;;;40.83;27.30;;;17.20;99.90;;;;;;5054630;28;20679;-68
2022/07/23 00:09:36;;;;;;;41.60;27.30;;;17.30;99.90;;;;;;5054899;28;20194;-67
2022/07/23 00:12:02;;;;;;;46.10;30.30;;;17.30;99.90;;;;;;5053421;28;20175;-67
2022/07/23 00:14:27;;;;;;;42.43;28.60;;;17.30;99.90;;;;;;5054507;28;20194;-67
2022/07/23 00:16:53;;;;;;;46.00;27.57;;;17.20;99.90;;;;;;5054819;28;20222;-67
2022/07/23 00:19:18;;;;;;;45.03;28.83;;;17.10;99.90;;;;;;5054604;28;20252;-67
2022/07/23 00:21:44;;;;;;;45.33;29.17;;;17.10;99.90;;;;;;5054393;28;20665;-67
2022/07/23 00:24:09;;;;;;;49.57;29.50;;;17.10;99.90;;;;;;5054312;28;20167;-66
2022/07/23 00:26:35;;;;;;;46.53;30.17;;;17.20;99.90;;;;;;5054340;28;20603;-67
2022/07/23 00:29:01;;;;;;;48.43;29.83;;;17.30;99.90;;;;;;5053279;28;20171;-68
2022/07/23 00:31:27;;;;;;;47.50;29.23;;;17.20;99.90;;;;;;5054500;28;20607;-67
2022/07/23 00:33:56;;;;;;;50.13;29.30;;;17.20;99.90;;;;;;5054275;28;20652;-66
2022/07/23 00:36:23;;;;;;;52.73;34.63;;;17.20;99.90;;;;;;5054295;28;20258;-67
2022/07/23 00:38:49;;;;;;;53.57;35.47;;;17.20;99.90;;;;;;5054269;28;20171;-67
2022/07/23 00:41:15;;;;;;;55.07;36.47;;;17.10;99.90;;;;;;5053180;28;20194;-67
2022/07/23 00:43:40;;;;;;;54.77;33.07;;;17.10;99.90;;;;;;5053998;28;20183;-67
2022/07/23 00:46:06;;;;;;;50.57;31.50;;;17.00;99.90;;;;;;5053767;28;20687;-67
2022/07/23 00:48:32;;;;;;;53.17;32.53;;;17.00;99.90;;;;;;5054261;28;20201;-67
2022/07/23 00:50:57;;;;;;;55.87;32.07;;;17.00;99.90;;;;;;5054014;28;20217;-67
2022/07/23 00:53:23;;;;;;;52.33;32.77;;;17.00;99.90;;;;;;5053617;28;20544;-67
2022/07/23 00:55:49;;;;;;;63.17;35.47;;;17.10;99.90;;;;;;5053964;28;20171;-67
2022/07/23 00:58:16;;;;;;;69.73;37.17;;;17.10;99.90;;;;;;5053751;28;20183;-67
2022/07/23 01:00:42;;;;;;;63.60;36.43;;;17.10;99.90;;;;;;5053750;28;20237;-67
2022/07/23 01:03:07;;;;;;;67.70;35.53;;;17.10;99.90;;;;;;5053813;28;20221;-68
2022/07/23 01:05:33;;;;;;;62.40;36.50;;;17.10;99.90;;;;;;5053306;28;20199;-67
2022/07/23 01:08:00;;;;;;;62.07;35.53;;;17.10;99.90;;;;;;5053781;28;20540;-68
2022/07/23 01:10:32;;;;;;;64.20;35.37;;;17.10;99.90;;;;;;5053513;28;20202;-67
2022/07/23 01:12:59;;;;;;;64.67;36.87;;;17.10;99.90;;;;;;5053786;28;20182;-67
2022/07/23 01:15:24;;;;;;;66.27;36.00;;;17.10;99.90;;;;;;5053011;28;20236;-67
2022/07/23 01:17:51;;;;;;;58.27;36.03;;;17.10;99.90;;;;;;5053647;28;20178;-67
2022/07/23 01:20:16;;;;;;;72.20;37.60;;;17.10;99.90;;;;;;5053193;28;20289;-67
2022/07/23 01:22:43;;;;;;;65.83;34.63;;;17.10;99.90;;;;;;5053604;28;20262;-66
2022/07/23 01:25:08;;;;;;;66.10;35.40;;;17.10;99.90;;;;;;5052723;28;20206;-67
2022/07/23 01:27:34;;;;;;;62.73;34.13;;;17.20;99.90;;;;;;5053254;28;20175;-67
2022/07/23 01:30:02;;;;;;;58.47;32.13;;;17.10;99.90;;;;;;5051962;28;20562;-67
2022/07/23 01:32:28;;;;;;;56.27;34.23;;;17.10;99.90;;;;;;5053069;28;20209;-67
2022/07/23 01:34:54;;;;;;;66.30;34.60;;;17.00;99.90;;;;;;5052970;28;20211;-67
2022/07/23 01:37:19;;;;;;;74.53;36.77;;;16.90;99.90;;;;;;5051637;28;20179;-67
2022/07/23 01:39:45;;;;;;;59.40;32.67;;;16.90;99.90;;;;;;5052981;28;20206;-67
2022/07/23 01:42:10;;;;;;;63.57;33.87;;;16.90;99.90;;;;;;5051681;28;20262;-67
2022/07/23 01:44:36;;;;;;;62.63;34.70;;;16.80;99.90;;;;;;5052794;28;20229;-67
2022/07/23 01:47:02;;;;;;;61.00;33.03;;;16.70;99.90;;;;;;5051648;28;20175;-67
2022/07/23 01:49:27;;;;;;;79.43;35.90;;;16.60;99.90;;;;;;5052904;28;20191;-67
2022/07/23 01:52:02;;;;;;;80.63;38.50;;;16.60;99.90;;;;;;5052682;28;20189;-67
2022/07/23 01:54:33;;;;;;;66.40;36.43;;;16.50;99.90;;;;;;5052679;28;20166;-67
2022/07/23 01:56:59;;;;;;;74.97;41.10;;;16.40;99.90;;;;;;5051561;28;20179;-67
2022/07/23 01:59:26;;;;;;;76.93;38.83;;;16.40;99.90;;;;;;5052783;28;20183;-67
2022/07/23 02:01:52;;;;;;;87.93;38.67;;;16.40;99.90;;;;;;5052469;28;20175;-67
2022/07/23 02:04:21;;;;;;;94.93;39.80;;;16.30;99.90;;;;;;5052318;28;20167;-67
2022/07/23 02:06:47;;;;;;;83.40;36.50;;;16.30;99.90;;;;;;5051217;28;20199;-67
2022/07/23 02:09:13;;;;;;;73.53;37.33;;;16.20;99.90;;;;;;5052527;28;20190;-67
2022/07/23 02:11:38;;;;;;;80.23;38.27;;;16.20;99.90;;;;;;5052422;28;20214;-67
2022/07/23 02:14:04;;;;;;;80.53;38.50;;;16.20;99.90;;;;;;5052218;28;20171;-67
2022/07/23 02:16:30;;;;;;;81.00;39.17;;;16.20;99.90;;;;;;5052325;28;20630;-67
2022/07/23 02:18:55;;;;;;;77.20;39.20;;;16.20;99.90;;;;;;5052436;28;20592;-67
2022/07/23 02:21:21;;;;;;;83.70;37.70;;;16.20;99.90;;;;;;5052189;28;20183;-67
2022/07/23 02:23:47;;;;;;;79.93;43.47;;;16.10;99.90;;;;;;5052060;28;20265;-66
2022/07/23 02:26:13;;;;;;;88.17;42.57;;;16.10;99.90;;;;;;5051971;28;20295;-67
2022/07/23 02:28:38;;;;;;;95.43;42.97;;;16.00;99.90;;;;;;5052367;28;20286;-67
2022/07/23 02:31:05;;;;;;;83.67;41.47;;;16.00;99.90;;;;;;5051828;28;20202;-66
2022/07/23 02:33:30;;;;;;;87.67;39.30;;;16.00;99.90;;;;;;5051703;28;20709;-67
2022/07/23 02:35:56;;;;;;;99.33;42.43;;;15.90;99.90;;;;;;5050841;28;20182;-67
2022/07/23 02:38:22;;;;;;;92.30;41.63;;;15.90;99.90;;;;;;5050677;28;20201;-67
2022/07/23 02:40:47;;;;;;;87.63;42.13;;;15.90;99.90;;;;;;5051990;28;20218;-67
2022/07/23 02:43:13;;;;;;;103.60;42.20;;;15.80;99.90;;;;;;5051945;28;20246;-67
2022/07/23 02:45:38;;;;;;;104.87;42.90;;;15.80;99.90;;;;;;5051612;28;20253;-67
2022/07/23 02:48:04;;;;;;;123.60;46.80;;;15.80;99.90;;;;;;5051481;28;20231;-67
2022/07/23 02:50:30;;;;;;;105.03;43.27;;;15.70;99.90;;;;;;5051868;28;20529;-67
2022/07/23 02:52:55;;;;;;;102.97;42.77;;;15.70;99.90;;;;;;5051728;28;20217;-66
2022/07/23 02:55:21;;;;;;;108.70;46.27;;;15.60;99.90;;;;;;5051573;28;20175;-67
2022/07/23 02:57:47;;;;;;;97.00;40.17;;;15.60;99.90;;;;;;5051561;28;20277;-67
2022/07/23 03:00:12;;;;;;;111.53;44.60;;;15.60;99.90;;;;;;5051661;28;20199;-67
2022/07/23 03:02:38;;;;;;;99.07;41.03;;;15.50;99.90;;;;;;5051536;28;20186;-67
2022/07/23 03:05:04;;;;;;;102.50;43.30;;;15.50;99.90;;;;;;5051080;28;20202;-67
2022/07/23 03:07:30;;;;;;;115.37;44.00;;;15.40;99.90;;;;;;5051585;28;20178;-67
2022/07/23 03:09:55;;;;;;;124.57;45.00;;;15.40;99.90;;;;;;5051603;28;20648;-67
2022/07/23 03:12:21;;;;;;;115.57;43.23;;;15.40;99.90;;;;;;5051450;28;20262;-66
2022/07/23 03:14:47;;;;;;;114.30;43.97;;;15.40;99.90;;;;;;5051404;28;20632;-67
2022/07/23 03:17:12;;;;;;;124.17;44.27;;;15.40;99.90;;;;;;5050018;28;20190;-67
2022/07/23 03:19:38;;;;;;;110.87;42.40;;;15.30;99.90;;;;;;5051669;28;20194;-67
2022/07/23 03:22:04;;;;;;;108.03;42.03;;;15.30;99.90;;;;;;5051144;28;20671;-67
2022/07/23 03:27:14;;;;;;;117.60;42.07;;;15.30;99.90;;;;;;5051708;28;20186;-67
2022/07/23 03:29:40;;;;;;;109.80;41.77;;;15.30;99.90;;;;;;5051453;28;20191;-66
2022/07/23 03:32:05;;;;;;;106.83;41.63;;;15.30;99.90;;;;;;5050961;28;20182;-67
2022/07/23 03:34:31;;;;;;;125.47;42.60;;;15.30;99.90;;;;;;5051238;28;20257;-67
2022/07/23 03:36:57;;;;;;;109.50;41.10;;;15.30;99.90;;;;;;5049730;28;20553;-67
2022/07/23 03:39:22;;;;;;;119.03;42.90;;;15.30;99.90;;;;;;5049814;28;20687;-66
2022/07/23 03:41:48;;;;;;;111.30;42.70;;;15.20;99.90;;;;;;5051383;28;20224;-66
2022/07/23 03:44:13;;;;;;;116.20;41.03;;;15.20;99.90;;;;;;5050685;28;20175;-67
2022/07/23 03:46:39;;;;;;;109.60;42.70;;;15.20;99.90;;;;;;5051241;28;20237;-67
2022/07/23 03:49:05;;;;;;;113.40;40.90;;;15.20;99.90;;;;;;5050869;28;20174;-67
2022/07/23 03:51:30;;;;;;;116.30;41.93;;;15.20;99.90;;;;;;5051437;28;20179;-67
2022/07/23 03:53:56;;;;;;;106.13;39.47;;;15.20;99.90;;;;;;5050734;28;20252;-67
2022/07/23 03:56:21;;;;;;;117.87;41.27;;;15.20;99.90;;;;;;5051165;28;20633;-65
2022/07/23 03:58:47;;;;;;;107.47;40.57;;;15.10;99.90;;;;;;5051042;28;20601;-65
2022/07/23 04:01:13;;;;;;;102.30;40.80;;;15.20;99.90;;;;;;5049775;28;20733;-65
2022/07/23 04:03:39;;;;;;;100.60;39.23;;;15.20;99.90;;;;;;5050657;28;20269;-66
2022/07/23 04:06:05;;;;;;;103.47;41.80;;;15.10;99.90;;;;;;5050813;28;20221;-66
2022/07/23 04:08:31;;;;;;;84.13;39.10;;;15.20;99.90;;;;;;5050853;28;20183;-66
2022/07/23 04:10:57;;;;;;;84.73;38.13;;;15.20;99.90;;;;;;5051072;28;20199;-66
2022/07/23 04:13:22;;;;;;;86.20;39.30;;;15.20;99.90;;;;;;5050534;28;20178;-66
2022/07/23 04:15:48;;;;;;;77.67;37.47;;;15.20;99.90;;;;;;5050878;28;20545;-67
2022/07/23 04:18:17;;;;;;;81.93;37.10;;;15.20;99.90;;;;;;5054470;28;20596;-65
2022/07/23 04:20:43;;;;;;;79.23;37.90;;;15.20;99.90;;;;;;5053499;28;20199;-66
2022/07/23 04:23:09;;;;;;;78.23;36.77;;;15.30;99.90;;;;;;5054399;28;20269;-66
2022/07/23 04:25:35;;;;;;;77.50;38.83;;;15.30;99.90;;;;;;5053830;28;20264;-66
2022/07/23 04:28:01;;;;;;;70.93;34.80;;;15.30;99.90;;;;;;5054239;28;20171;-65
2022/07/23 04:30:26;;;;;;;68.53;34.57;;;15.30;99.90;;;;;;5054502;28;20199;-65
2022/07/23 04:32:52;;;;;;;72.77;35.37;;;15.40;99.90;;;;;;5054348;28;20190;-67
2022/07/23 04:35:17;;;;;;;74.10;35.83;;;15.50;99.90;;;;;;5034039;28;20194;-67
2022/07/23 04:37:43;;;;;;;74.00;36.30;;;15.50;99.90;;;;;;5033584;28;20188;-67
2022/07/23 04:40:09;;;;;;;82.27;37.27;;;15.50;99.90;;;;;;5053222;28;20222;-66
2022/07/23 04:42:35;;;;;;;78.67;33.00;;;15.50;99.90;;;;;;5054418;28;20182;-65
2022/07/23 04:45:00;;;;;;;74.87;33.17;;;15.50;99.90;;;;;;5053644;28;20301;-65
2022/07/23 04:47:26;;;;;;;63.93;33.10;;;15.60;99.90;;;;;;5054222;28;20170;-66
2022/07/23 04:49:52;;;;;;;66.00;32.40;;;15.50;99.90;;;;;;5053976;28;20227;-67
2022/07/23 04:52:17;;;;;;;79.00;32.80;;;15.50;99.90;;;;;;5054114;28;20664;-65
2022/07/23 04:54:43;;;;;;;90.90;33.83;;;15.60;99.90;;;;;;5053768;28;20186;-67
2022/07/23 04:57:08;;;;;;;75.10;33.07;;;15.60;99.90;;;;;;5054292;28;20597;-66
2022/07/23 04:59:34;;;;;;;73.73;33.63;;;15.70;99.90;;;;;;5053727;28;20656;-67
2022/07/23 05:01:59;;;;;;;77.60;34.83;;;15.80;99.90;;;;;;5053932;28;20224;-66
2022/07/23 05:04:25;;;;;;;68.83;35.53;;;15.80;99.90;;;;;;5053474;28;20716;-66
2022/07/23 05:06:50;;;;;;;67.10;35.30;;;15.90;99.90;;;;;;5053950;28;20276;-66
2022/07/23 05:09:16;;;;;;;62.97;33.90;;;16.00;99.90;;;;;;5053463;28;20278;-65
2022/07/23 05:11:42;;;;;;;68.17;35.03;;;16.20;99.90;;;;;;5053705;28;20175;-66
2022/07/23 05:14:07;;;;;;;65.13;33.50;;;16.20;99.90;;;;;;5051493;28;20175;-65
2022/07/23 05:16:33;;;;;;;70.30;33.87;;;16.30;99.90;;;;;;5053713;28;20189;-66
2022/07/23 05:18:58;;;;;;;65.63;33.63;;;16.40;99.90;;;;;;5053711;28;20186;-66
2022/07/23 05:21:24;;;;;;;63.60;34.10;;;16.50;99.90;;;;;;5053434;28;20182;-66
2022/07/23 05:23:49;;;;;;;61.23;33.43;;;16.60;99.90;;;;;;5053246;28;20595;-66
2022/07/23 05:26:15;;;;;;;54.73;31.13;;;16.60;99.90;;;;;;5051785;28;20214;-67
2022/07/23 05:28:55;;;;;;;54.27;31.77;;;16.70;99.90;;;;;;5053255;28;20175;-67
2022/07/23 05:31:21;;;;;;;52.20;31.50;;;16.70;99.90;;;;;;5053256;28;20206;-67
2022/07/23 05:33:47;;;;;;;60.90;34.37;;;16.70;99.90;;;;;;5053456;28;20656;-66
2022/07/23 05:36:12;;;;;;;58.97;31.73;;;16.80;99.90;;;;;;5052260;28;20261;-66
2022/07/23 05:38:38;;;;;;;56.63;34.70;;;17.00;99.90;;;;;;5053215;28;20190;-65
2022/07/23 05:41:03;;;;;;;59.27;37.37;;;17.10;99.90;;;;;;5052937;28;20293;-66
2022/07/23 05:43:29;;;;;;;54.33;31.17;;;17.30;99.90;;;;;;5052954;28;20174;-65
2022/07/23 05:45:55;;;;;;;49.00;28.77;;;17.40;99.90;;;;;;5052804;28;20207;-66
2022/07/23 05:48:21;;;;;;;47.10;31.23;;;17.50;99.90;;;;;;5053117;28;20285;-66
2022/07/23 05:50:47;;;;;;;52.40;29.90;;;17.70;99.90;;;;;;5052893;28;20691;-66
2022/07/23 05:53:13;;;;;;;50.90;30.47;;;17.90;99.90;;;;;;5053065;28;20637;-66
2022/07/23 05:55:39;;;;;;;39.90;26.43;;;18.20;99.90;;;;;;5052602;28;20179;-66
2022/07/23 05:58:05;;;;;;;44.13;26.50;;;18.30;99.90;;;;;;5052679;28;20686;-65
2022/07/23 06:00:30;;;;;;;34.63;25.13;;;18.40;99.90;;;;;;5052635;28;20211;-65
2022/07/23 06:02:56;;;;;;;37.13;25.90;;;18.60;99.90;;;;;;5052825;28;20174;-66
2022/07/23 06:05:22;;;;;;;36.03;22.80;;;18.90;99.90;;;;;;5052117;28;20242;-68
2022/07/23 06:07:48;;;;;;;38.80;23.83;;;18.90;99.90;;;;;;5052926;28;20175;-66
2022/07/23 06:10:13;;;;;;;32.10;23.50;;;19.10;99.90;;;;;;5052469;28;20585;-66
2022/07/23 06:12:39;;;;;;;27.33;24.50;;;19.40;99.90;;;;;;5052617;28;20690;-66
2022/07/23 06:15:05;;;;;;;24.33;19.27;;;19.80;99.90;;;;;;5051990;28;20190;-66
2022/07/23 06:17:31;;;;;;;19.27;16.53;;;20.10;99.90;;;;;;5052550;28;20621;-66
2022/07/23 06:19:57;;;;;;;23.00;16.83;;;20.10;99.90;;;;;;5050882;28;20214;-66
2022/07/23 06:22:22;;;;;;;19.40;17.00;;;20.20;99.90;;;;;;5052388;28;20183;-67
2022/07/23 06:24:49;;;;;;;21.00;14.70;;;20.20;99.90;;;;;;5051727;28;20179;-66
2022/07/23 06:27:15;;;;;;;21.93;17.83;;;20.10;99.90;;;;;;5052224;28;20524;-66
2022/07/23 06:29:40;;;;;;;20.40;18.40;;;20.40;99.90;;;;;;5052127;28;20270;-65
2022/07/23 06:32:07;;;;;;;16.47;14.77;;;20.70;99.90;;;;;;5052387;28;20817;-66
2022/07/23 06:34:33;;;;;;;22.00;17.13;;;20.90;99.90;;;;;;5051881;28;20269;-66
2022/07/23 06:37:00;;;;;;;21.83;15.83;;;21.00;99.90;;;;;;5051356;28;20589;-67
2022/07/23 06:39:25;;;;;;;17.67;13.73;;;21.30;99.90;;;;;;5051028;28;20297;-65
2022/07/23 06:41:51;;;;;;;17.17;14.87;;;21.40;99.90;;;;;;5067442;28;20266;-67
2022/07/23 06:44:17;;;;;;;15.50;14.00;;;21.80;99.90;;;;;;5071469;28;20192;-66
2022/07/23 06:46:43;;;;;;;18.60;14.73;;;22.00;99.90;;;;;;5071922;28;20209;-66
2022/07/23 06:49:08;;;;;;;16.10;14.50;;;22.30;99.90;;;;;;5064030;28;20253;-65
2022/07/23 06:51:34;;;;;;;21.00;17.65;;;22.60;99.90;;;;;;5052127;28;20270;-66
2022/07/23 06:54:00;;;;;;;19.20;17.35;;;22.80;99.90;;;;;;5051266;28;20189;-66
2022/07/23 06:56:26;;;;;;;15.15;13.50;;;22.90;99.90;;;;;;5051982;28;20539;-66
2022/07/23 06:58:52;;;;;;;18.30;16.60;;;23.00;99.90;;;;;;5051509;28;20265;-66
2022/07/23 07:01:17;;;;;;;22.58;15.40;;;23.10;99.90;;;;;;5051767;28;20221;-65
2022/07/23 07:03:43;;;;;;;14.50;12.88;;;23.30;99.90;;;;;;5051292;28;20186;-65
2022/07/23 07:06:09;;;;;;;14.98;13.48;;;23.50;99.90;;;;;;5051435;28;20203;-66
2022/07/23 07:08:34;;;;;;;19.75;17.98;;;23.50;99.90;;;;;;5051620;28;20163;-65
2022/07/23 07:11:00;;;;;;;21.05;19.13;;;23.60;99.90;;;;;;5050753;28;20204;-67
2022/07/23 07:13:25;;;;;;;15.57;14.00;;;23.90;99.90;;;;;;5050357;28;20179;-67
2022/07/23 07:15:51;;;;;;;16.25;13.80;;;23.90;99.90;;;;;;5051408;28;20676;-66
2022/07/23 07:18:17;;;;;;;15.45;12.88;;;23.80;99.90;;;;;;5050732;28;20210;-66
2022/07/23 07:20:43;;;;;;;14.15;12.38;;;23.90;99.90;;;;;;5051402;28;20684;-66
2022/07/23 07:23:08;;;;;;;14.98;12.00;;;24.00;99.90;;;;;;5051049;28;20198;-66
2022/07/23 07:25:34;;;;;;;16.35;12.95;;;23.80;99.90;;;;;;5051100;28;20568;-68
2022/07/23 07:27:59;;;;;;;14.93;12.82;;;23.30;99.90;;;;;;5050380;28;20177;-68
2022/07/23 07:30:25;;;;;;;19.40;17.07;;;23.10;99.90;;;;;;5051063;28;20206;-67
2022/07/23 07:32:51;;;;;;;21.05;17.00;;;22.90;99.90;;;;;;5050187;28;20171;-67
2022/07/23 07:35:16;;;;;;;17.67;15.20;;;23.10;99.90;;;;;;5050856;28;20183;-67
2022/07/23 07:37:42;;;;;;;16.75;14.10;;;23.40;99.90;;;;;;5050247;28;20208;-67
2022/07/23 07:40:08;;;;;;;21.40;13.60;;;23.60;99.90;;;;;;5050788;28;20206;-67
2022/07/23 07:42:34;;;;;;;16.38;13.15;;;23.90;99.90;;;;;;5051141;28;20182;-67
2022/07/23 07:45:00;;;;;;;18.60;14.15;;;24.10;99.90;;;;;;5050821;28;20205;-67
2022/07/23 07:47:26;;;;;;;20.65;15.45;;;23.90;99.90;;;;;;5049511;28;20549;-67
2022/07/23 07:49:51;;;;;;;19.92;17.27;;;23.70;99.90;;;;;;5051299;28;20722;-67
2022/07/23 07:52:17;;;;;;;20.45;15.85;;;23.60;99.90;;;;;;5054572;28;20206;-67
2022/07/23 07:54:43;;;;;;;19.70;16.10;;;23.50;99.90;;;;;;5054958;28;20257;-67
2022/07/23 07:57:09;;;;;;;21.60;17.60;;;23.70;99.90;;;;;;5054714;28;20174;-67
2022/07/23 07:59:35;;;;;;;24.38;17.25;;;23.90;99.90;;;;;;5055129;28;20186;-66
2022/07/23 08:02:01;;;;;;;23.02;19.17;;;24.20;99.90;;;;;;5054870;28;20182;-66
2022/07/23 08:04:27;;;;;;;22.77;16.98;;;24.50;99.90;;;;;;5054622;28;20167;-66
2022/07/23 08:06:52;;;;;;;20.17;15.80;;;24.60;99.90;;;;;;5054571;28;20238;-66
2022/07/23 08:09:18;;;;;;;18.67;14.90;;;24.50;99.90;;;;;;5054670;28;20281;-66
2022/07/23 08:11:44;;;;;;;21.05;18.85;;;24.20;99.90;;;;;;5054476;28;20545;-67
2022/07/23 08:14:10;;;;;;;16.08;14.40;;;24.20;99.90;;;;;;5054097;28;20174;-67
2022/07/23 08:16:36;;;;;;;16.95;13.73;;;24.50;99.90;;;;;;5054347;28;20322;-67
2022/07/23 08:19:02;;;;;;;15.23;13.30;;;24.80;99.90;;;;;;5054660;28;20264;-67
2022/07/23 08:21:27;;;;;;;16.20;12.77;;;25.10;99.90;;;;;;5054318;28;20268;-66
2022/07/23 08:23:53;;;;;;;20.70;14.45;;;25.40;99.90;;;;;;5053190;28;20632;-67
2022/07/23 08:26:19;;;;;;;18.50;12.77;;;25.60;99.90;;;;;;5052529;28;20317;-67
2022/07/23 08:28:44;;;;;;;17.20;12.98;;;26.00;99.90;;;;;;5054300;28;20194;-66
2022/07/23 08:31:11;;;;;;;16.67;12.15;;;26.40;99.90;;;;;;5053864;28;20730;-67
2022/07/23 08:33:37;;;;;;;12.45;11.15;;;26.90;99.90;;;;;;5054089;28;20543;-67
2022/07/23 08:36:03;;;;;;;15.85;11.50;;;27.60;99.90;;;;;;5053147;28;20233;-67
2022/07/23 08:38:29;;;;;;;12.57;8.93;;;28.10;99.90;;;;;;5054322;28;20174;-66
2022/07/23 08:40:57;;;;;;;11.57;10.40;;;28.20;99.90;;;;;;5053685;28;20213;-66
2022/07/23 08:43:31;;;;;;;13.57;10.68;;;28.10;99.90;;;;;;5052768;28;20660;-66
2022/07/23 08:45:58;;;;;;;13.05;10.82;;;27.80;99.90;;;;;;5053860;28;20202;-66
2022/07/23 08:48:27;;;;;;;14.10;11.77;;;27.50;99.90;;;;;;5053882;28;20172;-66
2022/07/23 08:50:55;;;;;;;13.98;11.15;;;27.30;99.90;;;;;;5053793;28;20792;-66
2022/07/23 08:53:22;;;;;;;14.55;9.80;;;27.60;99.90;;;;;;5053785;28;20166;-66
2022/07/23 08:55:51;;;;;;;13.02;11.60;;;28.20;99.90;;;;;;5052638;28;20193;-65
2022/07/23 08:58:17;;;;;;;13.75;11.68;;;28.30;99.90;;;;;;5052605;28;20175;-67
2022/07/23 09:00:44;;;;;;;12.27;10.98;;;27.60;99.90;;;;;;5053798;28;20283;-66
2022/07/23 09:03:19;;;;;;;14.30;11.20;;;27.30;99.90;;;;;;5053215;28;20196;-66
2022/07/23 09:05:45;;;;;;;11.20;9.98;;;27.30;99.90;;;;;;5053423;28;20289;-67
2022/07/23 09:08:11;;;;;;;12.70;10.75;;;27.50;99.90;;;;;;5053452;28;20179;-66
2022/07/23 09:10:56;;;;;;;12.05;10.45;;;28.00;99.90;;;;;;5053787;28;20198;-67
2022/07/23 09:13:27;;;;;;;13.02;9.48;;;28.20;99.90;;;;;;5053255;28;20528;-66
2022/07/23 09:15:55;;;;;;;10.73;9.63;;;28.80;99.90;;;;;;5053835;28;20652;-66
2022/07/23 09:18:33;;;;;;;14.32;8.82;;;29.30;99.90;;;;;;5053286;28;20767;-67
2022/07/23 09:21:34;;;;;;;15.43;9.77;;;29.80;99.90;;;;;;5053986;28;20293;-65
2022/07/23 09:24:20;;;;;;;11.02;9.18;;;30.20;99.90;;;;;;5051739;28;20222;-66
2022/07/23 09:26:47;;;;;;;12.25;9.60;;;30.40;99.90;;;;;;5053823;28;20198;-65
2022/07/23 09:29:18;;;;;;;11.20;9.98;;;30.40;99.90;;;;;;5053270;28;20199;-65
2022/07/23 09:31:51;;;;;;;9.55;8.05;;;30.40;99.90;;;;;;5053550;28;20519;-65
2022/07/23 09:34:35;;;;;;;15.82;9.38;;;30.40;99.90;;;;;;5052568;28;20175;-65
2022/07/23 09:37:16;;;;;;;8.85;8.00;;;30.70;99.90;;;;;;5053251;28;20240;-65
2022/07/23 09:39:44;;;;;;;10.98;8.35;;;31.30;99.90;;;;;;5053185;28;20579;-66
2022/07/23 09:42:13;;;;;;;8.07;7.28;;;31.00;99.90;;;;;;5052976;28;20194;-67
2022/07/23 09:44:44;;;;;;;9.30;7.95;;;30.70;99.90;;;;;;5033147;28;20171;-67
2022/07/23 09:47:09;;;;;;;12.63;8.75;;;30.40;99.90;;;;;;5033902;28;20180;-67
2022/07/23 09:49:35;;;;;;;9.75;8.70;;;30.10;99.90;;;;;;5053065;28;20546;-67
2022/07/23 09:52:02;;;;;;;9.48;8.57;;;30.20;99.90;;;;;;5053150;28;20171;-66
2022/07/23 09:54:39;;;;;;;8.52;7.72;;;30.60;99.90;;;;;;5052219;28;20244;-67
2022/07/23 09:57:08;;;;;;;9.95;8.48;;;30.90;99.90;;;;;;5053259;28;20177;-67
2022/07/23 09:59:38;;;;;;;9.55;8.52;;;30.90;99.90;;;;;;5052804;28;20210;-67
2022/07/23 10:02:06;;;;;;;7.90;6.82;;;30.80;99.90;;;;;;5052895;28;20203;-67
2022/07/23 10:04:32;;;;;;;10.73;8.38;;;31.10;99.90;;;;;;5052437;28;20539;-67
2022/07/23 10:07:01;;;;;;;9.10;8.20;;;30.90;99.90;;;;;;5052821;28;20203;-67
2022/07/23 10:09:32;;;;;;;11.65;8.48;;;31.10;99.90;;;;;;5052389;28;20695;-67
2022/07/23 10:14:35;;;;;;;7.75;6.40;;;31.50;99.90;;;;;;5051302;28;20189;-67
2022/07/23 10:17:02;;;;;;;7.78;6.97;;;31.30;99.90;;;;;;5052688;28;20177;-67
2022/07/23 10:19:28;;;;;;;6.90;6.20;;;31.20;99.90;;;;;;5052225;28;20199;-67
2022/07/23 10:22:03;;;;;;;7.53;6.88;;;31.30;99.90;;;;;;5052566;28;20183;-67
2022/07/23 10:24:51;;;;;;;7.90;7.10;;;31.30;99.90;;;;;;5051874;28;20847;-67
2022/07/23 10:27:33;;;;;;;8.25;7.38;;;31.30;99.90;;;;;;5051386;28;20258;-67
2022/07/23 10:30:36;;;;;;;8.32;7.63;;;31.30;99.90;;;;;;5052106;28;20199;-68
2022/07/23 10:33:23;;;;;;;9.07;7.88;;;31.30;99.90;;;;;;5052128;28;20219;-67
2022/07/23 10:35:58;;;;;;;7.32;6.53;;;31.80;99.90;;;;;;5051599;28;20182;-66
2022/07/23 10:38:37;;;;;;;6.80;6.20;;;32.30;99.90;;;;;;5051874;28;20232;-66
2022/07/23 10:41:04;;;;;;;6.80;6.10;;;32.40;99.90;;;;;;5052706;28;20206;-67
2022/07/23 10:43:31;;;;;;;6.40;5.90;;;32.10;99.90;;;;;;5051428;28;20671;-66
2022/07/23 10:46:22;;;;;;;9.27;6.43;;;31.80;99.90;;;;;;5051997;28;20541;-66
2022/07/23 10:49:24;;;;;;;7.30;6.57;;;31.70;99.90;;;;;;5051950;28;20174;-66
2022/07/23 10:52:14;;;;;;;7.82;7.03;;;31.70;99.90;;;;;;5052178;28;20168;-66
2022/07/23 10:54:44;;;;;;;7.55;6.85;;;31.40;99.90;;;;;;5051477;28;20179;-67
2022/07/23 10:57:12;;;;;;;6.68;6.07;;;31.30;99.90;;;;;;5052210;28;20631;-66
2022/07/23 11:00:12;;;;;;;6.90;6.30;;;31.70;99.90;;;;;;5051620;28;20672;-66
2022/07/23 11:02:40;;;;;;;5.85;5.22;;;32.20;99.90;;;;;;5051837;28;20163;-66
2022/07/23 11:05:07;;;;;;;5.43;4.93;;;32.60;99.90;;;;;;5051110;28;20206;-66
2022/07/23 11:07:34;;;;;;;4.95;4.47;;;32.50;99.90;;;;;;5051703;28;20686;-66
2022/07/23 11:10:01;;;;;;;5.88;5.38;;;32.50;99.90;;;;;;5051412;28;20198;-66
2022/07/23 11:12:30;;;;;;;6.13;4.95;;;32.50;99.90;;;;;;5051253;28;20190;-66
2022/07/23 11:15:12;;;;;;;6.28;5.32;;;32.50;99.90;;;;;;5051598;28;20254;-66
2022/07/23 11:17:59;;;;;;;5.30;4.78;;;32.60;99.90;;;;;;5031738;28;20514;-66
2022/07/23 11:20:26;;;;;;;6.00;5.00;;;33.00;99.90;;;;;;5034531;28;20255;-66
2022/07/23 11:22:58;;;;;;;4.93;4.43;;;33.20;99.90;;;;;;5050927;28;20171;-66
2022/07/23 11:25:29;;;;;;;5.20;4.57;;;33.20;99.90;;;;;;5050586;28;20195;-66
2022/07/23 11:28:08;;;;;;;6.07;4.85;;;33.30;99.90;;;;;;5051573;28;20293;-66
2022/07/23 11:30:40;;;;;;;4.40;3.88;;;33.00;99.90;;;;;;5051090;28;20224;-66
2022/07/23 11:33:11;;;;;;;5.32;4.70;;;32.90;99.90;;;;;;5051374;28;20174;-66
2022/07/23 11:35:40;;;;;;;4.68;4.28;;;32.70;99.90;;;;;;5049596;28;20175;-66
2022/07/23 11:38:11;;;;;;;6.32;4.60;;;32.80;99.90;;;;;;5051617;28;20174;-66
2022/07/23 11:40:37;;;;;;;6.65;4.30;;;32.90;99.90;;;;;;5051090;28;20663;-66
2022/07/23 11:43:13;;;;;;;6.00;4.53;;;32.90;99.90;;;;;;5051294;28;20221;-66
2022/07/23 11:45:52;;;;;;;4.70;4.35;;;32.40;99.90;;;;;;5050826;28;20249;-66
2022/07/23 11:48:26;;;;;;;5.30;4.80;;;32.20;99.90;;;;;;5051291;28;20249;-66
2022/07/23 11:50:53;;;;;;;4.43;4.13;;;32.00;99.90;;;;;;5049777;28;20200;-66
2022/07/23 11:53:27;;;;;;;4.28;3.97;;;32.00;99.90;;;;;;5051178;28;20562;-66
2022/07/23 11:55:54;;;;;;;4.60;4.20;;;32.30;99.90;;;;;;5049868;28;20182;-66
2022/07/23 11:58:21;;;;;;;4.40;4.03;;;32.40;99.90;;;;;;5051103;28;20182;-66
2022/07/23 12:00:47;;;;;;;3.95;3.45;;;32.90;99.90;;;;;;5050670;28;20328;-66
2022/07/23 12:03:12;;;;;;;4.00;3.72;;;33.20;99.90;;;;;;5050654;28;20229;-66
2022/07/23 12:05:39;;;;;;;4.63;3.67;;;33.20;99.90;;;;;;5050649;28;20233;-66
2022/07/23 12:08:07;;;;;;;3.85;3.55;;;33.40;99.90;;;;;;5051187;28;20277;-65
2022/07/23 12:10:42;;;;;;;3.95;3.65;;;33.20;99.90;;;;;;5050957;28;20191;-65
2022/07/23 12:13:20;;;;;;;5.13;4.55;;;33.00;99.90;;;;;;5051012;28;20166;-65
2022/07/23 12:15:48;;;;;;;4.68;4.28;;;32.70;99.90;;;;;;5050170;28;20531;-65
2022/07/23 12:18:34;;;;;;;4.40;3.75;;;32.90;99.90;;;;;;5050921;28;20182;-65
2022/07/23 12:21:04;;;;;;;4.30;3.55;;;33.20;99.90;;;;;;5051159;28;20186;-65
2022/07/23 12:23:29;;;;;;;5.13;3.70;;;33.10;99.90;;;;;;5050950;28;20174;-65
2022/07/23 12:26:00;;;;;;;3.80;3.50;;;33.20;99.90;;;;;;5050914;28;20560;-65
2022/07/23 12:28:33;;;;;;;4.13;3.83;;;33.10;99.90;;;;;;5050991;28;20171;-65
2022/07/23 12:30:59;;;;;;;3.40;3.20;;;32.90;99.90;;;;;;5051001;28;20187;-65
2022/07/23 12:33:27;;;;;;;4.35;3.95;;;33.20;99.90;;;;;;5050623;28;20190;-65
2022/07/23 12:35:55;;;;;;;4.30;3.90;;;33.40;99.90;;;;;;5050816;28;20175;-65
2022/07/23 12:38:23;;;;;;;4.07;3.78;;;33.30;99.90;;;;;;5052977;28;20201;-65
2022/07/23 12:40:50;;;;;;;3.92;3.63;;;33.10;99.90;;;;;;5054529;28;20304;-65